createdAt,value
2023-04-29T00:02:55.958Z,88.60
2023-04-29T00:06:58.784Z,88.75
2023-04-29T00:11:01.654Z,88.23
2023-04-29T00:15:04.792Z,87.92
2023-04-29T00:19:07.570Z,87.93
2023-04-29T00:23:10.415Z,88.27
2023-04-29T00:27:13.392Z,88.37
2023-04-29T00:31:16.500Z,88.60
2023-04-29T00:35:19.613Z,88.42
2023-04-29T00:39:22.386Z,88.50
2023-04-29T00:43:25.295Z,88.54
2023-04-29T00:47:28.366Z,87.94
2023-04-29T00:51:31.206Z,88.30
2023-04-29T00:55:34.280Z,88.85
2023-04-29T00:59:37.965Z,89.13
2023-04-29T01:03:41.884Z,89.24
2023-04-29T01:07:54.004Z,89.07
2023-04-29T01:12:11.109Z,89.29
2023-04-29T01:16:21.770Z,89.77
2023-04-29T01:20:26.195Z,89.99
2023-04-29T01:24:29.235Z,89.41
2023-04-29T01:28:34.994Z,90.22
2023-04-29T01:32:37.870Z,91.13
2023-04-29T01:37:05.545Z,91.84
2023-04-29T01:41:11.033Z,91.51
2023-04-29T01:45:17.190Z,91.26
2023-04-29T01:49:20.783Z,90.58
2023-04-29T01:53:23.651Z,90.13
2023-04-29T01:57:26.650Z,90.63
2023-04-29T02:01:29.587Z,91.11
2023-04-29T02:05:34.296Z,91.62
2023-04-29T02:09:37.529Z,92.25
2023-04-29T02:13:40.803Z,92.04
2023-04-29T02:17:43.630Z,92.17
2023-04-29T02:21:46.598Z,93.45
2023-04-29T02:25:49.398Z,95.22
2023-04-29T02:29:52.349Z,94.94
2023-04-29T02:33:55.762Z,94.93
2023-04-29T02:37:58.813Z,94.80
2023-04-29T02:42:01.833Z,94.58
2023-04-29T02:46:05.225Z,94.55
2023-04-29T02:50:08.311Z,94.80
2023-04-29T02:54:11.963Z,94.87
2023-04-29T02:58:14.932Z,94.75
2023-04-29T03:02:17.815Z,94.27
2023-04-29T03:06:21.048Z,93.88
2023-04-29T03:10:23.904Z,92.90
2023-04-29T03:14:26.943Z,92.76
2023-04-29T03:18:29.965Z,92.59
2023-04-29T03:22:32.928Z,93.63
2023-04-29T03:26:35.818Z,94.54
2023-04-29T03:30:38.951Z,94.94
2023-04-29T03:34:42.237Z,94.93
2023-04-29T03:38:51.995Z,95.26
2023-04-29T03:42:55.277Z,95.23
2023-04-29T03:46:58.194Z,94.77
2023-04-29T03:51:01.170Z,94.88
2023-04-29T03:55:04.286Z,94.93
2023-04-29T03:59:07.643Z,94.16
2023-04-29T04:03:10.654Z,93.52
2023-04-29T04:07:13.557Z,93.54
2023-04-29T04:11:16.546Z,94.39
2023-04-29T04:15:19.424Z,94.64
2023-04-29T04:19:22.268Z,94.68
2023-04-29T04:23:25.167Z,94.66
2023-04-29T04:27:28.390Z,94.63
2023-04-29T04:31:31.416Z,94.60
2023-04-29T04:35:34.332Z,94.31
2023-04-29T04:39:37.340Z,94.51
2023-04-29T04:43:41.540Z,95.52
2023-04-29T04:47:44.568Z,97.27
2023-04-29T04:51:47.464Z,98.95
2023-04-29T04:55:50.374Z,98.05
2023-04-29T04:59:53.338Z,96.86
2023-04-29T05:03:56.453Z,97.05
2023-04-29T05:07:59.293Z,96.68
2023-04-29T05:12:02.134Z,95.36
2023-04-29T05:16:06.661Z,95.66
2023-04-29T05:20:09.837Z,95.50
2023-04-29T05:24:12.689Z,96.35
2023-04-29T05:28:15.616Z,96.51
2023-04-29T05:32:18.488Z,96.52
2023-04-29T05:36:25.556Z,95.93
2023-04-29T05:40:28.465Z,95.36
2023-04-29T05:44:31.218Z,95.82
2023-04-29T05:48:34.033Z,96.29
2023-04-29T05:52:36.854Z,96.90
2023-04-29T05:56:39.769Z,97.51
2023-04-29T06:00:43.939Z,99.50
2023-04-29T06:04:47.975Z,100.00
2023-04-29T06:08:50.863Z,100.00
2023-04-29T06:12:53.695Z,100.00
2023-04-29T06:16:57.273Z,100.00
2023-04-29T06:21:00.084Z,100.00
2023-04-29T06:25:02.873Z,100.00
2023-04-29T06:29:25.500Z,100.00
2023-04-29T06:33:30.519Z,100.00
2023-04-29T06:41:37.348Z,100.00
2023-04-29T06:46:05.514Z,100.00
2023-04-29T06:55:03.916Z,100.00
2023-04-29T06:59:07.919Z,100.00
2023-04-29T07:03:11.461Z,100.00
2023-04-29T07:07:43.487Z,100.00
2023-04-29T07:11:46.119Z,100.00
2023-04-29T07:15:48.744Z,100.00
2023-04-29T07:19:51.671Z,100.00
2023-04-29T07:23:55.578Z,100.00
2023-04-29T07:28:01.971Z,100.00
2023-04-29T07:32:04.710Z,100.00
2023-04-29T07:36:07.572Z,100.00
2023-04-29T07:40:10.324Z,100.00
2023-04-29T07:44:13.018Z,100.00
2023-04-29T07:48:17.102Z,100.00
2023-04-29T07:52:19.766Z,100.00
2023-04-29T07:56:37.470Z,100.00
2023-04-29T08:00:40.292Z,100.00
2023-04-29T08:04:54.918Z,100.00
2023-04-29T08:08:57.958Z,100.00
2023-04-29T08:13:08.327Z,100.00
2023-04-29T08:17:11.325Z,100.00
2023-04-29T08:21:14.294Z,100.00
2023-04-29T08:25:17.729Z,100.00
2023-04-29T08:29:20.636Z,100.00
2023-04-29T08:33:23.370Z,100.00
2023-04-29T08:37:26.101Z,100.00
2023-04-29T08:41:28.975Z,100.00
2023-04-29T08:45:33.980Z,99.97
2023-04-29T08:49:38.305Z,99.80
2023-04-29T08:53:41.194Z,99.84
2023-04-29T08:57:44.834Z,96.20
2023-04-29T09:01:51.965Z,91.18
2023-04-29T09:05:56.224Z,91.23
2023-04-29T09:10:04.847Z,92.19
2023-04-29T09:14:09.420Z,89.26
2023-04-29T09:18:12.050Z,87.89
2023-04-29T09:22:14.949Z,90.19
2023-04-29T09:26:18.811Z,90.37
2023-04-29T09:30:22.474Z,87.23
2023-04-29T09:34:37.529Z,86.66
2023-04-29T09:38:54.114Z,86.40
2023-04-29T09:42:57.818Z,87.47
2023-04-29T09:47:03.310Z,87.41
2023-04-29T09:51:07.358Z,85.88
2023-04-29T09:55:11.069Z,87.96
2023-04-29T09:59:14.490Z,84.92
2023-04-29T10:03:17.950Z,86.84
2023-04-29T10:07:21.463Z,85.17
2023-04-29T10:11:25.249Z,83.99
2023-04-29T10:15:37.171Z,85.25
2023-04-29T10:20:05.994Z,81.31
2023-04-29T10:24:11.284Z,81.71
2023-04-29T10:28:17.112Z,82.71
2023-04-29T10:32:22.310Z,82.44
2023-04-29T10:36:26.392Z,81.69
2023-04-29T10:40:37.007Z,81.12
2023-04-29T10:44:59.101Z,81.95
2023-04-29T10:49:03.779Z,81.54
2023-04-29T10:53:06.977Z,80.43
2023-04-29T10:57:20.547Z,83.15
2023-04-29T11:01:40.504Z,81.59
2023-04-29T11:05:46.169Z,88.37
2023-04-29T11:10:14.704Z,95.30
2023-04-29T11:14:22.529Z,98.27
2023-04-29T11:18:25.937Z,98.84
2023-04-29T11:22:34.060Z,99.91
2023-04-29T11:45:50.933Z,97.33
2023-04-29T11:50:04.982Z,94.63
2023-04-29T11:54:08.919Z,92.59
2023-04-29T11:58:11.596Z,91.15
2023-04-29T12:02:14.617Z,88.53
2023-04-29T12:06:17.217Z,86.44
2023-04-29T12:10:18.951Z,86.20
2023-04-29T12:14:37.009Z,86.22
2023-04-29T12:18:44.855Z,88.33
2023-04-29T12:23:22.278Z,90.04
2023-04-29T12:27:35.647Z,92.09
2023-04-29T12:31:47.617Z,93.21
2023-04-29T12:36:02.560Z,93.94
2023-04-29T12:40:23.346Z,94.14
2023-04-29T12:44:45.284Z,93.86
2023-04-29T12:49:02.454Z,93.74
2023-04-29T12:53:17.152Z,97.50
2023-04-29T12:57:45.012Z,99.50
2023-04-29T13:01:53.630Z,95.36
2023-04-29T13:06:06.841Z,93.68
2023-04-29T13:10:20.562Z,93.07
2023-04-29T13:14:25.943Z,84.99
2023-04-29T13:18:36.756Z,87.23
2023-04-29T13:22:48.078Z,85.83
2023-04-29T13:26:55.853Z,81.98
2023-04-29T13:36:46.716Z,89.26
2023-04-29T13:40:51.460Z,90.52
2023-04-29T13:45:00.229Z,95.63
2023-04-29T13:49:29.353Z,87.14
2023-04-29T13:54:01.798Z,84.71
2023-04-29T14:02:23.078Z,86.00
2023-04-29T14:06:17.743Z,84.00
2023-04-29T14:10:32.790Z,83.30
2023-04-29T14:14:35.406Z,86.25
2023-04-29T14:18:36.936Z,91.54
2023-04-29T14:22:38.802Z,99.16
2023-04-29T14:26:41.232Z,100.00
2023-04-29T14:30:46.160Z,100.00
2023-04-29T14:34:48.943Z,100.00
2023-04-29T14:38:50.893Z,100.00
2023-04-29T14:42:53.216Z,100.00
2023-04-29T14:46:54.875Z,100.00
2023-04-29T14:50:56.895Z,100.00
2023-04-29T14:54:59.891Z,100.00
2023-04-29T14:59:01.686Z,100.00
2023-04-29T15:03:10.331Z,100.00
2023-04-29T15:07:26.039Z,100.00
2023-04-29T15:11:30.405Z,100.00
2023-04-29T15:15:32.012Z,100.00
2023-04-29T15:19:44.350Z,100.00
2023-04-29T15:23:45.861Z,100.00
2023-04-29T15:27:47.403Z,100.00
2023-04-29T15:31:49.400Z,100.00
2023-04-29T15:35:51.032Z,100.00
2023-04-29T15:39:53.077Z,100.00
2023-04-29T15:43:58.265Z,100.00
2023-04-29T15:48:00.210Z,100.00
2023-04-29T15:52:04.062Z,100.00
2023-04-29T15:56:05.698Z,100.00
2023-04-29T16:00:08.385Z,100.00
2023-04-29T16:04:50.510Z,100.00
2023-04-29T16:08:54.335Z,100.00
2023-04-29T16:12:56.114Z,100.00
2023-04-29T16:17:07.623Z,100.00
2023-04-29T16:21:09.408Z,100.00
2023-04-29T16:25:12.866Z,99.96
2023-04-29T16:29:14.659Z,100.00
2023-04-29T16:33:16.190Z,100.00
2023-04-29T16:37:17.617Z,100.00
2023-04-29T16:41:19.320Z,100.00
2023-04-29T16:45:23.636Z,100.00
2023-04-29T16:49:26.079Z,100.00
2023-04-29T16:53:27.926Z,100.00
2023-04-29T16:57:29.810Z,100.00
2023-04-29T17:06:15.491Z,100.00
2023-04-29T17:10:17.696Z,100.00
2023-04-29T17:14:19.568Z,100.00
2023-04-29T17:18:21.495Z,100.00
2023-04-29T17:22:23.443Z,100.00
2023-04-29T17:26:25.396Z,100.00
2023-04-29T17:30:27.416Z,100.00
2023-04-29T17:34:30.500Z,100.00
2023-04-29T17:38:35.650Z,100.00
2023-04-29T17:42:37.723Z,100.00
2023-04-29T17:46:40.052Z,100.00
2023-04-29T17:50:42.045Z,100.00
2023-04-29T17:54:43.798Z,100.00
2023-04-29T17:58:45.621Z,100.00
2023-04-29T18:02:47.475Z,100.00
2023-04-29T18:06:49.274Z,100.00
2023-04-29T18:10:51.267Z,100.00
2023-04-29T18:14:53.259Z,100.00
2023-04-29T18:18:56.888Z,100.00
2023-04-29T18:22:59.083Z,100.00
2023-04-29T18:27:01.710Z,100.00
2023-04-29T18:31:03.478Z,100.00
2023-04-29T18:35:05.919Z,100.00
2023-04-29T18:39:07.857Z,100.00
2023-04-29T18:43:11.250Z,100.00
2023-04-29T18:47:12.978Z,100.00
2023-04-29T18:51:14.590Z,100.00
2023-04-29T18:55:16.498Z,100.00
2023-04-29T18:59:21.058Z,100.00
2023-04-29T19:03:22.971Z,100.00
2023-04-29T19:07:24.834Z,100.00
2023-04-29T19:11:26.743Z,100.00
2023-04-29T19:15:32.065Z,100.00
2023-04-29T19:19:34.003Z,100.00
2023-04-29T19:23:36.132Z,100.00
2023-04-29T19:27:44.435Z,100.00
2023-04-29T19:31:46.876Z,100.00
2023-04-29T19:35:48.856Z,100.00
2023-04-29T19:39:51.600Z,100.00
2023-04-29T19:43:54.756Z,100.00
2023-04-29T19:47:58.973Z,100.00
2023-04-29T19:52:02.969Z,100.00
2023-04-29T19:56:05.010Z,100.00
2023-04-29T20:00:08.911Z,100.00
2023-04-29T20:04:12.577Z,100.00
2023-04-29T20:08:15.929Z,100.00
2023-04-29T20:12:18.007Z,100.00
2023-04-29T20:16:23.095Z,100.00
2023-04-29T20:20:25.579Z,100.00
2023-04-29T20:24:27.343Z,100.00
2023-04-29T20:28:31.273Z,100.00
2023-04-29T20:32:33.197Z,100.00
2023-04-29T20:36:35.580Z,100.00
2023-04-29T20:40:37.232Z,100.00
2023-04-29T20:44:39.013Z,100.00
2023-04-29T20:48:40.847Z,100.00
2023-04-29T20:52:43.952Z,100.00
2023-04-29T20:56:46.373Z,99.02
2023-04-29T21:00:48.197Z,97.05
2023-04-29T21:04:50.560Z,97.72
2023-04-29T21:08:52.858Z,98.26
2023-04-29T21:12:54.665Z,97.98
2023-04-29T21:16:57.077Z,98.32
2023-04-29T21:21:00.278Z,97.99
2023-04-29T21:25:04.611Z,97.31
2023-04-29T21:29:07.458Z,96.73
2023-04-29T21:33:09.999Z,97.11
2023-04-29T21:37:14.732Z,96.88
2023-04-29T21:41:22.756Z,97.26
2023-04-29T21:45:24.961Z,97.13
2023-04-29T21:49:27.817Z,96.96
2023-04-29T21:53:29.591Z,97.04
2023-04-29T21:57:43.553Z,97.08
2023-04-29T22:01:48.286Z,97.69
2023-04-29T22:05:50.561Z,98.06
2023-04-29T22:09:52.718Z,97.51
2023-04-29T22:13:56.166Z,98.32
2023-04-29T22:17:58.710Z,99.68
2023-04-29T22:22:02.409Z,100.00
2023-04-29T22:26:04.536Z,100.00
2023-04-29T22:30:08.427Z,100.00
2023-04-29T22:34:12.131Z,100.00
2023-04-29T22:38:14.526Z,100.00
2023-04-29T22:42:17.648Z,100.00
2023-04-29T22:46:19.518Z,100.00
2023-04-29T22:50:21.402Z,100.00
2023-04-29T22:54:23.980Z,100.00
2023-04-29T22:58:26.205Z,100.00
2023-04-29T23:02:30.043Z,100.00
2023-04-29T23:06:35.236Z,100.00
2023-04-29T23:10:41.128Z,100.00
2023-04-29T23:14:44.964Z,100.00
2023-04-29T23:18:47.294Z,100.00
2023-04-29T23:22:51.665Z,100.00
2023-04-29T23:26:53.378Z,100.00
2023-04-29T23:30:55.243Z,100.00
2023-04-29T23:34:57.865Z,100.00
2023-04-29T23:39:00.676Z,100.00
2023-04-29T23:43:02.737Z,100.00
2023-04-29T23:47:05.400Z,100.00
2023-04-29T23:51:07.614Z,100.00
2023-04-29T23:55:11.016Z,100.00
2023-04-29T23:59:13.084Z,100.00
